CheckWX is a tool to help pilots better visualize weather data.  It is not intended as a substitute for an official pre-flight weather briefing.

00:40:35 UTC

LGMK TAF
Mikonos Airport
Mykonos Island, Greece
TAF LGMK 262300Z 2700/2709 36015KT 9999 FEW020

Mar-27@
00:00 UTC

Mar-27 @ 00:00 UTC

Mar-27@
09:00 UTC

Mar-27 @ 09:00 UTC

TAF LGMK 262300Z 2700/2709 36015KT 9999 FEW020
Wind
  • 360° at 15 KTS
Cloud Levels
  • Few at 2,000' AGL